This is the latest recevied weather packets stored in our database for station/object LA9UTA-13. If no packets are shown the sender has not sent any weather packets the latest 10 day(s).
| Time | Temp. | Humidity | Pressure | Rain* | Wind** | Luminosity | Snow |
|---|---|---|---|---|---|---|---|
| 1788253808 | 13.33° C | 86% | 1008.9 hPa | 0 mm | - | 162 W/m² | - |
| 1788251411 | 12.78° C | 89% | 1009 hPa | 0 mm | - | 112 W/m² | - |
| 1788250209 | 12.78° C | 89% | 1009 hPa | 0 mm | - | 123 W/m² | - |
| 1788249009 | 12.22° C | 90% | 1009 hPa | 0 mm | - | 114 W/m² | - |
| 1788247808 | 11.67° C | 92% | 1009.1 hPa | 0 mm | - | 114 W/m² | - |
| 1788246610 | 11.67° C | 94% | 1009.1 hPa | 0 mm | - | 98 W/m² | - |
| 1788245408 | 10.56° C | 95% | 1009.2 hPa | 0 mm | - | 89 W/m² | - |
| 1788244208 | 11.11° C | 96% | 1009.1 hPa | 0 mm | - | 88 W/m² | - |
| 1788243043 | 10.56° C | 96% | 1009.2 hPa | 0 mm | - | 61 W/m² | - |
| 1788243008 | 10.56° C | 96% | 1009.2 hPa | 0 mm | - | 61 W/m² | - |
| 1788241808 | 10° C | 96% | 1009.2 hPa | 0 mm | - | 45 W/m² | - |
| 1788240608 | 9.44° C | 96% | 1008.3 hPa | 0 mm | - | 36 W/m² | - |
| 1788239408 | 9.44° C | 95% | 1008.3 hPa | 0 mm | - | 25 W/m² | - |
| 1788238208 | 9.44° C | 95% | 1008.3 hPa | 0 mm | - | 14 W/m² | - |
| 1788237009 | 8.89° C | 95% | 1008.4 hPa | 0 mm | - | 7 W/m² | - |
| 1788216610 | 10° C | 93% | 1007.3 hPa | 0 mm | - | 0 W/m² | - |
| 1788215409 | 10.56° C | 93% | 1007.2 hPa | 0 mm | - | 0 W/m² | - |
| 1788211809 | 11.11° C | 92% | 1007.1 hPa | 0 mm | - | 0 W/m² | - |
| 1788210609 | 11.11° C | 92% | 1007.1 hPa | 0 mm | - | 0 W/m² | - |
| 1788209408 | 11.67° C | 91% | 1007.1 hPa | 0 mm | - | 0 W/m² | - |
| 1788207009 | 13.33° C | 88% | 1006.9 hPa | 0 mm | - | 0 W/m² | - |
| 1788205808 | 13.33° C | 88% | 1006.9 hPa | 0 mm | - | 0 W/m² | - |
| 1788203408 | 14.44° C | 84% | 1005.8 hPa | 0 mm | - | 0 W/m² | - |
| 1788202208 | 14.44° C | 83% | 1005.8 hPa | 0 mm | - | 0 W/m² | - |
| 1788201008 | 14.44° C | 80% | 1005.8 hPa | 0 mm | - | 2 W/m² | - |
* Rain latest hour (hover to see other rain measurements)
** Current wind speed in m/s (hover to see current wind gust speed)